sensor_id;sensor_type;location;lat;lon;timestamp;pressure;altitude;pressure_sealevel;temperature;humidity
63339;BME280;47485;51.378;-1.342;2023-05-11T00:01:06;100085.36;;;7.49;40.59
63339;BME280;47485;51.378;-1.342;2023-05-11T00:03:33;100085.96;;;6.49;40.42
63339;BME280;47485;51.378;-1.342;2023-05-11T00:06:01;100085.81;;;7.62;39.94
63339;BME280;47485;51.378;-1.342;2023-05-11T00:08:28;100086.82;;;6.55;41.57
63339;BME280;47485;51.378;-1.342;2023-05-11T00:10:54;100082.40;;;7.73;41.06
63339;BME280;47485;51.378;-1.342;2023-05-11T00:13:22;100081.64;;;7.53;41.82
63339;BME280;47485;51.378;-1.342;2023-05-11T00:15:48;100077.83;;;7.30;41.47
63339;BME280;47485;51.378;-1.342;2023-05-11T00:18:15;100078.79;;;7.63;42.33
63339;BME280;47485;51.378;-1.342;2023-05-11T00:20:41;100078.31;;;7.12;42.25
63339;BME280;47485;51.378;-1.342;2023-05-11T00:23:08;100078.55;;;6.37;43.84
63339;BME280;47485;51.378;-1.342;2023-05-11T00:25:34;100078.71;;;6.98;43.67
63339;BME280;47485;51.378;-1.342;2023-05-11T00:28:01;100075.95;;;5.41;44.42
63339;BME280;47485;51.378;-1.342;2023-05-11T00:30:29;100076.65;;;5.77;44.11
63339;BME280;47485;51.378;-1.342;2023-05-11T00:32:55;100073.97;;;6.22;41.87
63339;BME280;47485;51.378;-1.342;2023-05-11T00:35:22;100071.59;;;7.78;40.94
63339;BME280;47485;51.378;-1.342;2023-05-11T00:37:49;100068.96;;;7.18;41.75
63339;BME280;47485;51.378;-1.342;2023-05-11T00:40:15;100070.04;;;7.43;40.32
63339;BME280;47485;51.378;-1.342;2023-05-11T00:42:43;100072.33;;;7.74;41.60
63339;BME280;47485;51.378;-1.342;2023-05-11T00:45:10;100069.51;;;6.63;42.80
63339;BME280;47485;51.378;-1.342;2023-05-11T00:47:36;100068.39;;;5.70;42.73
63339;BME280;47485;51.378;-1.342;2023-05-11T00:50:05;100070.67;;;6.98;43.04
63339;BME280;47485;51.378;-1.342;2023-05-11T00:52:32;100069.64;;;7.71;42.25
63339;BME280;47485;51.378;-1.342;2023-05-11T00:54:59;100070.04;;;7.63;42.85
63339;BME280;47485;51.378;-1.342;2023-05-11T00:57:26;100073.58;;;5.76;43.37
63339;BME280;47485;51.378;-1.342;2023-05-11T00:59:53;100071.85;;;6.33;43.38
63339;BME280;47485;51.378;-1.342;2023-05-11T01:02:21;100073.41;;;6.30;44.40
63339;BME280;47485;51.378;-1.342;2023-05-11T01:04:48;100073.29;;;6.20;45.37
63339;BME280;47485;51.378;-1.342;2023-05-11T01:07:19;100072.93;;;6.36;45.92
63339;BME280;47485;51.378;-1.342;2023-05-11T01:09:56;100071.08;;;5.84;44.78
63339;BME280;47485;51.378;-1.342;2023-05-11T01:12:42;100072.00;;;5.43;44.93
63339;BME280;47485;51.378;-1.342;2023-05-11T01:15:12;100072.79;;;6.68;44.95
63339;BME280;47485;51.378;-1.342;2023-05-11T01:17:46;100072.12;;;7.05;43.24
63339;BME280;47485;51.378;-1.342;2023-05-11T01:20:17;100070.82;;;7.33;40.99
63339;BME280;47485;51.378;-1.342;2023-05-11T01:23:09;100070.75;;;7.11;40.76
63339;BME280;47485;51.378;-1.342;2023-05-11T01:25:52;100071.96;;;8.10;40.11
63339;BME280;47485;51.378;-1.342;2023-05-11T01:28:35;100067.22;;;9.12;37.84
63339;BME280;47485;51.378;-1.342;2023-05-11T01:31:09;100061.36;;;9.22;36.69
63339;BME280;47485;51.378;-1.342;2023-05-11T01:33:40;100062.97;;;9.98;36.35
63339;BME280;47485;51.378;-1.342;2023-05-11T01:36:10;100062.75;;;9.37;36.84
63339;BME280;47485;51.378;-1.342;2023-05-11T01:38:40;100063.38;;;9.98;36.79
63339;BME280;47485;51.378;-1.342;2023-05-11T01:41:11;100063.31;;;8.96;36.73
63339;BME280;47485;51.378;-1.342;2023-05-11T01:43:40;100068.17;;;8.52;37.60
63339;BME280;47485;51.378;-1.342;2023-05-11T01:46:09;100068.45;;;8.91;38.17
63339;BME280;47485;51.378;-1.342;2023-05-11T01:48:42;100072.36;;;9.15;37.54
63339;BME280;47485;51.378;-1.342;2023-05-11T01:51:11;100075.08;;;9.62;37.68
63339;BME280;47485;51.378;-1.342;2023-05-11T01:53:40;100069.56;;;9.99;36.70
63339;BME280;47485;51.378;-1.342;2023-05-11T01:56:08;100075.33;;;8.92;38.65
63339;BME280;47485;51.378;-1.342;2023-05-11T01:58:37;100079.00;;;8.41;39.02
63339;BME280;47485;51.378;-1.342;2023-05-11T02:01:06;100074.53;;;8.60;37.70
63339;BME280;47485;51.378;-1.342;2023-05-11T02:03:35;100076.89;;;9.88;37.45
63339;BME280;47485;51.378;-1.342;2023-05-11T02:06:03;100077.26;;;10.65;36.57
63339;BME280;47485;51.378;-1.342;2023-05-11T02:08:32;100082.87;;;9.31;36.81
63339;BME280;47485;51.378;-1.342;2023-05-11T02:11:01;100082.58;;;8.31;36.76
63339;BME280;47485;51.378;-1.342;2023-05-11T02:13:30;100083.94;;;9.90;36.67
63339;BME280;47485;51.378;-1.342;2023-05-11T02:15:59;100086.28;;;9.80;36.94
63339;BME280;47485;51.378;-1.342;2023-05-11T02:18:27;100083.42;;;9.77;35.75
63339;BME280;47485;51.378;-1.342;2023-05-11T02:20:55;100090.68;;;9.91;37.57
63339;BME280;47485;51.378;-1.342;2023-05-11T02:23:23;100091.18;;;9.64;37.87
63339;BME280;47485;51.378;-1.342;2023-05-11T02:25:51;100092.38;;;8.64;38.55
63339;BME280;47485;51.378;-1.342;2023-05-11T02:28:20;100095.43;;;8.14;39.21
63339;BME280;47485;51.378;-1.342;2023-05-11T02:30:49;100092.23;;;8.11;38.73
63339;BME280;47485;51.378;-1.342;2023-05-11T02:33:20;100090.40;;;9.37;38.31
63339;BME280;47485;51.378;-1.342;2023-05-11T02:35:50;100088.87;;;9.51;37.26
63339;BME280;47485;51.378;-1.342;2023-05-11T02:38:19;100091.73;;;9.15;37.18
63339;BME280;47485;51.378;-1.342;2023-05-11T02:40:49;100090.38;;;10.09;36.32
63339;BME280;47485;51.378;-1.342;2023-05-11T02:43:22;100087.19;;;10.31;34.47
63339;BME280;47485;51.378;-1.342;2023-05-11T02:45:52;100085.40;;;10.46;33.37
63339;BME280;47485;51.378;-1.342;2023-05-11T02:48:24;100087.22;;;11.87;32.81
63339;BME280;47485;51.378;-1.342;2023-05-11T02:50:54;100084.77;;;10.28;33.25
63339;BME280;47485;51.378;-1.342;2023-05-11T02:53:24;100089.94;;;10.91;33.57
63339;BME280;47485;51.378;-1.342;2023-05-11T02:55:54;100088.39;;;11.90;33.21
63339;BME280;47485;51.378;-1.342;2023-05-11T02:58:22;100090.28;;;10.47;33.60
63339;BME280;47485;51.378;-1.342;2023-05-11T03:00:49;100088.06;;;10.58;33.13
63339;BME280;47485;51.378;-1.342;2023-05-11T03:03:16;100090.47;;;10.81;33.26
63339;BME280;47485;51.378;-1.342;2023-05-11T03:05:43;100091.39;;;11.06;33.96
63339;BME280;47485;51.378;-1.342;2023-05-11T03:08:10;100090.48;;;10.96;34.59
63339;BME280;47485;51.378;-1.342;2023-05-11T03:10:38;100091.87;;;10.04;34.98
63339;BME280;47485;51.378;-1.342;2023-05-11T03:13:06;100089.43;;;10.15;35.97
63339;BME280;47485;51.378;-1.342;2023-05-11T03:15:33;100089.93;;;8.55;36.98
63339;BME280;47485;51.378;-1.342;2023-05-11T03:18:00;100091.43;;;9.80;36.84
63339;BME280;47485;51.378;-1.342;2023-05-11T03:20:29;100090.74;;;10.35;37.38
63339;BME280;47485;51.378;-1.342;2023-05-11T03:22:57;100092.55;;;9.41;36.88
63339;BME280;47485;51.378;-1.342;2023-05-11T03:25:26;100091.67;;;9.27;36.53
63339;BME280;47485;51.378;-1.342;2023-05-11T03:27:54;100091.29;;;11.34;35.05
63339;BME280;47485;51.378;-1.342;2023-05-11T03:30:23;100087.43;;;9.83;33.93
63339;BME280;47485;51.378;-1.342;2023-05-11T03:32:51;100082.62;;;10.68;33.47
63339;BME280;47485;51.378;-1.342;2023-05-11T03:35:19;100083.13;;;10.48;35.09
63339;BME280;47485;51.378;-1.342;2023-05-11T03:37:47;100084.47;;;10.69;35.48
63339;BME280;47485;51.378;-1.342;2023-05-11T03:40:19;100083.10;;;10.50;35.08
63339;BME280;47485;51.378;-1.342;2023-05-11T03:42:47;100081.94;;;10.67;35.07
63339;BME280;47485;51.378;-1.342;2023-05-11T03:45:16;100081.96;;;9.81;35.29
63339;BME280;47485;51.378;-1.342;2023-05-11T03:47:45;100079.98;;;11.93;34.31
63339;BME280;47485;51.378;-1.342;2023-05-11T03:50:14;100082.10;;;9.47;35.59
63339;BME280;47485;51.378;-1.342;2023-05-11T03:52:41;100084.53;;;10.95;35.75
63339;BME280;47485;51.378;-1.342;2023-05-11T03:55:09;100083.14;;;10.50;34.29
63339;BME280;47485;51.378;-1.342;2023-05-11T03:57:36;100081.95;;;11.59;33.72
63339;BME280;47485;51.378;-1.342;2023-05-11T04:00:05;100083.25;;;11.09;32.87
63339;BME280;47485;51.378;-1.342;2023-05-11T04:02:33;100082.43;;;11.30;32.17
63339;BME280;47485;51.378;-1.342;2023-05-11T04:05:00;100084.83;;;11.44;31.56
63339;BME280;47485;51.378;-1.342;2023-05-11T04:07:27;100086.40;;;11.72;32.03
63339;BME280;47485;51.378;-1.342;2023-05-11T04:09:55;100087.42;;;13.37;31.99
63339;BME280;47485;51.378;-1.342;2023-05-11T04:12:22;100085.96;;;11.15;31.76
63339;BME280;47485;51.378;-1.342;2023-05-11T04:14:53;100088.23;;;13.13;31.24
63339;BME280;47485;51.378;-1.342;2023-05-11T04:17:21;100086.74;;;12.29;31.15
63339;BME280;47485;51.378;-1.342;2023-05-11T04:19:48;100085.92;;;13.10;31.04
63339;BME280;47485;51.378;-1.342;2023-05-11T04:22:15;100086.26;;;12.84;30.44
63339;BME280;47485;51.378;-1.342;2023-05-11T04:24:41;100080.89;;;12.72;30.05
63339;BME280;47485;51.378;-1.342;2023-05-11T04:27:08;100082.34;;;13.68;30.00
63339;BME280;47485;51.378;-1.342;2023-05-11T04:29:35;100084.05;;;12.36;30.15
63339;BME280;47485;51.378;-1.342;2023-05-11T04:32:02;100091.96;;;11.70;32.32
63339;BME280;47485;51.378;-1.342;2023-05-11T04:34:29;100091.30;;;11.84;33.21
63339;BME280;47485;51.378;-1.342;2023-05-11T04:36:55;100090.73;;;11.17;33.46
63339;BME280;47485;51.378;-1.342;2023-05-11T04:39:22;100093.14;;;11.16;34.50
63339;BME280;47485;51.378;-1.342;2023-05-11T04:41:49;100092.90;;;10.64;34.59
63339;BME280;47485;51.378;-1.342;2023-05-11T04:44:16;100090.67;;;10.27;34.57
63339;BME280;47485;51.378;-1.342;2023-05-11T04:46:43;100091.35;;;10.54;34.43
63339;BME280;47485;51.378;-1.342;2023-05-11T04:49:10;100096.78;;;10.32;34.15
63339;BME280;47485;51.378;-1.342;2023-05-11T04:51:37;100095.66;;;11.68;33.79
63339;BME280;47485;51.378;-1.342;2023-05-11T04:54:03;100097.11;;;10.64;34.23
63339;BME280;47485;51.378;-1.342;2023-05-11T04:56:30;100095.33;;;11.17;33.34
63339;BME280;47485;51.378;-1.342;2023-05-11T04:58:56;100098.49;;;10.61;33.54
63339;BME280;47485;51.378;-1.342;2023-05-11T05:01:23;100099.09;;;10.85;34.06
63339;BME280;47485;51.378;-1.342;2023-05-11T05:03:49;100099.89;;;10.57;34.81
63339;BME280;47485;51.378;-1.342;2023-05-11T05:06:16;100102.99;;;9.50;34.08
63339;BME280;47485;51.378;-1.342;2023-05-11T05:08:43;100100.59;;;11.67;33.46
63339;BME280;47485;51.378;-1.342;2023-05-11T05:11:10;100105.87;;;11.79;32.91
63339;BME280;47485;51.378;-1.342;2023-05-11T05:13:37;100106.08;;;10.17;33.08
63339;BME280;47485;51.378;-1.342;2023-05-11T05:16:04;100107.71;;;11.86;31.97
63339;BME280;47485;51.378;-1.342;2023-05-11T05:18:31;100105.72;;;12.16;31.68
63339;BME280;47485;51.378;-1.342;2023-05-11T05:20:58;100107.10;;;11.30;32.13
63339;BME280;47485;51.378;-1.342;2023-05-11T05:23:25;100105.85;;;12.52;30.49
63339;BME280;47485;51.378;-1.342;2023-05-11T05:25:52;100108.13;;;12.60;30.37
63339;BME280;47485;51.378;-1.342;2023-05-11T05:28:20;100108.43;;;13.01;30.40
63339;BME280;47485;51.378;-1.342;2023-05-11T05:30:47;100109.62;;;13.45;30.45
63339;BME280;47485;51.378;-1.342;2023-05-11T05:33:13;100113.01;;;12.71;30.72
63339;BME280;47485;51.378;-1.342;2023-05-11T05:35:40;100116.64;;;11.03;32.06
63339;BME280;47485;51.378;-1.342;2023-05-11T05:38:07;100115.23;;;11.98;33.12
63339;BME280;47485;51.378;-1.342;2023-05-11T05:40:34;100119.77;;;11.25;33.86
63339;BME280;47485;51.378;-1.342;2023-05-11T05:43:01;100121.69;;;11.44;33.83
63339;BME280;47485;51.378;-1.342;2023-05-11T05:45:28;100121.84;;;10.94;33.96
63339;BME280;47485;51.378;-1.342;2023-05-11T05:47:54;100122.39;;;12.55;33.54
63339;BME280;47485;51.378;-1.342;2023-05-11T05:50:22;100123.96;;;11.36;33.62
63339;BME280;47485;51.378;-1.342;2023-05-11T05:52:49;100125.21;;;11.81;33.62
63339;BME280;47485;51.378;-1.342;2023-05-11T05:55:16;100129.79;;;10.99;34.08
63339;BME280;47485;51.378;-1.342;2023-05-11T05:57:43;100132.51;;;10.57;33.21
63339;BME280;47485;51.378;-1.342;2023-05-11T06:00:11;100134.51;;;11.70;34.35
63339;BME280;47485;51.378;-1.342;2023-05-11T06:02:37;100136.07;;;11.18;35.53
63339;BME280;47485;51.378;-1.342;2023-05-11T06:05:05;100138.24;;;9.45;37.30
63339;BME280;47485;51.378;-1.342;2023-05-11T06:07:32;100138.83;;;10.28;36.83
63339;BME280;47485;51.378;-1.342;2023-05-11T06:09:58;100136.68;;;9.86;36.55
63339;BME280;47485;51.378;-1.342;2023-05-11T06:12:26;100136.84;;;10.98;36.62
63339;BME280;47485;51.378;-1.342;2023-05-11T06:14:54;100136.76;;;9.63;37.08
63339;BME280;47485;51.378;-1.342;2023-05-11T06:17:22;100142.72;;;9.00;38.85
63339;BME280;47485;51.378;-1.342;2023-05-11T06:19:49;100144.43;;;9.43;39.39
63339;BME280;47485;51.378;-1.342;2023-05-11T06:22:16;100142.24;;;9.98;37.90
63339;BME280;47485;51.378;-1.342;2023-05-11T06:24:43;100149.93;;;9.86;39.44
63339;BME280;47485;51.378;-1.342;2023-05-11T06:27:10;100148.94;;;9.77;39.36
63339;BME280;47485;51.378;-1.342;2023-05-11T06:29:37;100154.53;;;8.24;41.71
63339;BME280;47485;51.378;-1.342;2023-05-11T06:32:04;100157.99;;;6.93;42.67
63339;BME280;47485;51.378;-1.342;2023-05-11T06:34:32;100160.21;;;6.98;44.26
63339;BME280;47485;51.378;-1.342;2023-05-11T06:36:59;100159.28;;;5.77;44.29
63339;BME280;47485;51.378;-1.342;2023-05-11T06:39:25;100158.28;;;6.78;44.53
63339;BME280;47485;51.378;-1.342;2023-05-11T06:41:52;100159.59;;;7.18;43.83
63339;BME280;47485;51.378;-1.342;2023-05-11T06:44:19;100162.48;;;6.72;44.37
63339;BME280;47485;51.378;-1.342;2023-05-11T06:46:46;100163.68;;;6.19;43.48
63339;BME280;47485;51.378;-1.342;2023-05-11T06:49:13;100164.40;;;7.74;42.44
63339;BME280;47485;51.378;-1.342;2023-05-11T06:51:40;100166.70;;;9.02;41.28
63339;BME280;47485;51.378;-1.342;2023-05-11T06:54:07;100167.24;;;7.61;41.31
63339;BME280;47485;51.378;-1.342;2023-05-11T06:56:33;100170.94;;;8.49;41.20
63339;BME280;47485;51.378;-1.342;2023-05-11T06:59:00;100172.58;;;9.47;40.57
63339;BME280;47485;51.378;-1.342;2023-05-11T07:01:27;100173.52;;;8.04;43.08
63339;BME280;47485;51.378;-1.342;2023-05-11T07:03:54;100174.89;;;7.14;43.46
63339;BME280;47485;51.378;-1.342;2023-05-11T07:06:22;100171.26;;;7.41;41.37
63339;BME280;47485;51.378;-1.342;2023-05-11T07:08:48;100167.17;;;10.27;39.80
63339;BME280;47485;51.378;-1.342;2023-05-11T07:11:15;100167.02;;;8.36;41.85
63339;BME280;47485;51.378;-1.342;2023-05-11T07:13:42;100167.88;;;8.74;40.24
63339;BME280;47485;51.378;-1.342;2023-05-11T07:16:09;100169.38;;;7.41;42.04
63339;BME280;47485;51.378;-1.342;2023-05-11T07:18:37;100173.09;;;8.43;40.96
63339;BME280;47485;51.378;-1.342;2023-05-11T07:21:05;100170.54;;;9.56;39.61
63339;BME280;47485;51.378;-1.342;2023-05-11T07:23:32;100177.76;;;7.59;42.93
63339;BME280;47485;51.378;-1.342;2023-05-11T07:25:58;100171.47;;;9.12;40.87
63339;BME280;47485;51.378;-1.342;2023-05-11T07:28:26;100173.36;;;8.21;41.68
63339;BME280;47485;51.378;-1.342;2023-05-11T07:30:58;100177.80;;;9.33;40.55
63339;BME280;47485;51.378;-1.342;2023-05-11T07:33:25;100178.63;;;7.72;40.52
63339;BME280;47485;51.378;-1.342;2023-05-11T07:35:51;100186.44;;;9.56;40.37
63339;BME280;47485;51.378;-1.342;2023-05-11T07:38:18;100178.41;;;8.99;39.47
63339;BME280;47485;51.378;-1.342;2023-05-11T07:40:45;100179.70;;;10.79;36.93
63339;BME280;47485;51.378;-1.342;2023-05-11T07:43:12;100181.92;;;11.28;37.31
63339;BME280;47485;51.378;-1.342;2023-05-11T07:45:38;100185.34;;;9.48;38.97
63339;BME280;47485;51.378;-1.342;2023-05-11T07:48:06;100184.54;;;10.84;37.74
63339;BME280;47485;51.378;-1.342;2023-05-11T07:50:32;100183.53;;;11.08;35.99
63339;BME280;47485;51.378;-1.342;2023-05-11T07:52:59;100183.80;;;11.91;35.42
63339;BME280;47485;51.378;-1.342;2023-05-11T07:55:26;100184.30;;;11.54;35.69
63339;BME280;47485;51.378;-1.342;2023-05-11T07:57:53;100186.01;;;10.75;35.53
63339;BME280;47485;51.378;-1.342;2023-05-11T08:00:21;100182.03;;;11.68;34.06
63339;BME280;47485;51.378;-1.342;2023-05-11T08:02:48;100178.28;;;14.65;31.43
63339;BME280;47485;51.378;-1.342;2023-05-11T08:05:15;100180.33;;;13.93;31.96
63339;BME280;47485;51.378;-1.342;2023-05-11T08:07:42;100186.89;;;10.51;33.36
63339;BME280;47485;51.378;-1.342;2023-05-11T08:10:09;100179.71;;;12.11;31.40
63339;BME280;47485;51.378;-1.342;2023-05-11T08:12:36;100184.00;;;12.88;31.69
63339;BME280;47485;51.378;-1.342;2023-05-11T08:15:04;100181.82;;;12.57;31.95
63339;BME280;47485;51.378;-1.342;2023-05-11T08:17:31;100182.53;;;12.39;31.86
63339;BME280;47485;51.378;-1.342;2023-05-11T08:19:58;100185.42;;;12.58;32.65
63339;BME280;47485;51.378;-1.342;2023-05-11T08:22:25;100187.73;;;12.80;33.14
63339;BME280;47485;51.378;-1.342;2023-05-11T08:24:52;100188.07;;;12.00;34.05
63339;BME280;47485;51.378;-1.342;2023-05-11T08:27:19;100191.04;;;11.29;35.19
63339;BME280;47485;51.378;-1.342;2023-05-11T08:29:46;100190.76;;;12.74;33.76
63339;BME280;47485;51.378;-1.342;2023-05-11T08:32:13;100195.98;;;10.15;35.46
63339;BME280;47485;51.378;-1.342;2023-05-11T08:34:39;100196.11;;;10.99;33.44
63339;BME280;47485;51.378;-1.342;2023-05-11T08:37:06;100192.70;;;13.23;31.93
63339;BME280;47485;51.378;-1.342;2023-05-11T08:39:32;100191.15;;;13.36;31.87
63339;BME280;47485;51.378;-1.342;2023-05-11T08:42:01;100194.19;;;13.57;31.64
63339;BME280;47485;51.378;-1.342;2023-05-11T08:44:29;100192.63;;;9.95;34.02
63339;BME280;47485;51.378;-1.342;2023-05-11T08:46:59;100191.38;;;9.83;33.53
63339;BME280;47485;51.378;-1.342;2023-05-11T08:49:26;100184.74;;;10.37;31.14
63339;BME280;47485;51.378;-1.342;2023-05-11T08:51:54;100184.88;;;11.11;30.96
63339;BME280;47485;51.378;-1.342;2023-05-11T08:54:21;100188.67;;;13.71;29.11
63339;BME280;47485;51.378;-1.342;2023-05-11T08:56:49;100188.23;;;10.62;28.65
63339;BME280;47485;51.378;-1.342;2023-05-11T08:59:16;100186.44;;;13.87;27.21
63339;BME280;47485;51.378;-1.342;2023-05-11T09:01:44;100185.07;;;14.27;26.60
63339;BME280;47485;51.378;-1.342;2023-05-11T09:04:13;100185.83;;;12.72;27.42
63339;BME280;47485;51.378;-1.342;2023-05-11T09:06:40;100184.68;;;15.39;26.15
63339;BME280;47485;51.378;-1.342;2023-05-11T09:09:07;100193.71;;;7.29;31.65
63339;BME280;47485;51.378;-1.342;2023-05-11T09:11:34;100186.15;;;13.42;27.91
63339;BME280;47485;51.378;-1.342;2023-05-11T09:14:01;100186.91;;;15.40;26.30
63339;BME280;47485;51.378;-1.342;2023-05-11T09:16:28;100188.13;;;14.40;27.51
63339;BME280;47485;51.378;-1.342;2023-05-11T09:18:58;100194.59;;;10.65;30.50
63339;BME280;47485;51.378;-1.342;2023-05-11T09:21:25;100187.29;;;12.43;27.62
63339;BME280;47485;51.378;-1.342;2023-05-11T09:23:54;100184.91;;;14.33;27.50
63339;BME280;47485;51.378;-1.342;2023-05-11T09:26:22;100192.27;;;13.78;30.56
63339;BME280;47485;51.378;-1.342;2023-05-11T09:28:50;100190.99;;;13.07;31.23
63339;BME280;47485;51.378;-1.342;2023-05-11T09:31:36;100190.12;;;13.21;31.36
63339;BME280;47485;51.378;-1.342;2023-05-11T09:34:12;100192.99;;;12.54;30.54
63339;BME280;47485;51.378;-1.342;2023-05-11T09:36:39;100192.44;;;10.97;31.80
63339;BME280;47485;51.378;-1.342;2023-05-11T09:39:06;100193.41;;;11.00;31.49
63339;BME280;47485;51.378;-1.342;2023-05-11T09:41:34;100189.57;;;10.20;31.57
63339;BME280;47485;51.378;-1.342;2023-05-11T09:44:06;100184.05;;;12.43;30.48
63339;BME280;47485;51.378;-1.342;2023-05-11T09:46:34;100190.53;;;10.23;30.40
63339;BME280;47485;51.378;-1.342;2023-05-11T09:49:00;100192.18;;;14.46;30.10
63339;BME280;47485;51.378;-1.342;2023-05-11T09:51:28;100189.70;;;12.64;30.07
63339;BME280;47485;51.378;-1.342;2023-05-11T09:53:56;100189.30;;;12.61;29.36
63339;BME280;47485;51.378;-1.342;2023-05-11T09:56:42;100194.60;;;6.72;33.73
63339;BME280;47485;51.378;-1.342;2023-05-11T09:59:09;100194.95;;;9.63;31.62
63339;BME280;47485;51.378;-1.342;2023-05-11T10:01:36;100197.21;;;11.74;30.54
63339;BME280;47485;51.378;-1.342;2023-05-11T10:04:03;100195.87;;;11.44;30.19
63339;BME280;47485;51.378;-1.342;2023-05-11T10:06:43;100192.69;;;7.31;31.52
63339;BME280;47485;51.378;-1.342;2023-05-11T10:09:10;100185.08;;;13.25;27.66
63339;BME280;47485;51.378;-1.342;2023-05-11T10:11:42;100179.38;;;14.59;28.61
63339;BME280;47485;51.378;-1.342;2023-05-11T10:14:10;100185.80;;;12.83;29.14
63339;BME280;47485;51.378;-1.342;2023-05-11T10:16:39;100183.48;;;12.98;28.57
63339;BME280;47485;51.378;-1.342;2023-05-11T10:19:06;100184.80;;;13.30;29.12
63339;BME280;47485;51.378;-1.342;2023-05-11T10:21:34;100190.54;;;13.71;30.67
63339;BME280;47485;51.378;-1.342;2023-05-11T10:24:01;100190.67;;;12.49;30.67
63339;BME280;47485;51.378;-1.342;2023-05-11T10:26:29;100192.59;;;12.27;31.21
63339;BME280;47485;51.378;-1.342;2023-05-11T10:28:57;100193.28;;;12.03;30.60
63339;BME280;47485;51.378;-1.342;2023-05-11T10:31:25;100189.67;;;9.81;30.64
63339;BME280;47485;51.378;-1.342;2023-05-11T10:33:52;100180.40;;;14.26;27.88
63339;BME280;47485;51.378;-1.342;2023-05-11T10:36:22;100179.62;;;14.79;27.16
63339;BME280;47485;51.378;-1.342;2023-05-11T10:38:49;100185.43;;;11.38;27.24
63339;BME280;47485;51.378;-1.342;2023-05-11T10:41:28;100186.87;;;10.38;26.81
63339;BME280;47485;51.378;-1.342;2023-05-11T10:44:10;100186.69;;;13.19;25.13
63339;BME280;47485;51.378;-1.342;2023-05-11T10:46:58;100183.69;;;14.56;23.83
63339;BME280;47485;51.378;-1.342;2023-05-11T10:49:45;100181.90;;;17.71;22.59
63339;BME280;47485;51.378;-1.342;2023-05-11T10:52:28;100181.63;;;16.94;23.72
63339;BME280;47485;51.378;-1.342;2023-05-11T10:55:08;100181.65;;;14.47;25.99
63339;BME280;47485;51.378;-1.342;2023-05-11T10:57:51;100182.01;;;13.75;26.51
63339;BME280;47485;51.378;-1.342;2023-05-11T11:01:35;100181.12;;;15.27;27.11
63339;BME280;47485;51.378;-1.342;2023-05-11T11:04:03;100184.52;;;12.94;27.71
63339;BME280;47485;51.378;-1.342;2023-05-11T11:06:31;100185.30;;;12.55;29.49
63339;BME280;47485;51.378;-1.342;2023-05-11T11:09:00;100186.73;;;12.72;26.57
63339;BME280;47485;51.378;-1.342;2023-05-11T11:11:30;100188.55;;;11.94;26.92
63339;BME280;47485;51.378;-1.342;2023-05-11T11:13:58;100189.03;;;11.18;25.50
63339;BME280;47485;51.378;-1.342;2023-05-11T11:16:24;100190.02;;;10.93;27.07
63339;BME280;47485;51.378;-1.342;2023-05-11T11:18:51;100185.82;;;11.85;25.29
63339;BME280;47485;51.378;-1.342;2023-05-11T11:21:38;100190.51;;;9.42;27.23
63339;BME280;47485;51.378;-1.342;2023-05-11T11:24:05;100188.90;;;12.78;23.77
63339;BME280;47485;51.378;-1.342;2023-05-11T11:26:48;100188.42;;;14.18;22.76
63339;BME280;47485;51.378;-1.342;2023-05-11T11:29:15;100193.67;;;9.63;25.85
63339;BME280;47485;51.378;-1.342;2023-05-11T11:31:42;100195.08;;;12.87;24.44
63339;BME280;47485;51.378;-1.342;2023-05-11T11:34:41;100192.30;;;11.73;23.90
63339;BME280;47485;51.378;-1.342;2023-05-11T11:37:07;100194.04;;;11.72;24.45
63339;BME280;47485;51.378;-1.342;2023-05-11T11:39:52;100197.39;;;11.92;25.63
63339;BME280;47485;51.378;-1.342;2023-05-11T11:42:33;100199.28;;;11.74;26.54
63339;BME280;47485;51.378;-1.342;2023-05-11T11:45:32;100200.41;;;10.36;27.12
63339;BME280;47485;51.378;-1.342;2023-05-11T11:48:07;100198.00;;;10.53;28.12
63339;BME280;47485;51.378;-1.342;2023-05-11T11:50:34;100196.70;;;10.91;27.50
63339;BME280;47485;51.378;-1.342;2023-05-11T11:53:01;100196.72;;;8.89;29.14
63339;BME280;47485;51.378;-1.342;2023-05-11T11:55:46;100193.50;;;12.41;26.98
63339;BME280;47485;51.378;-1.342;2023-05-11T11:58:55;100192.07;;;11.26;26.38
63339;BME280;47485;51.378;-1.342;2023-05-11T12:01:24;100188.17;;;10.25;27.12
63339;BME280;47485;51.378;-1.342;2023-05-11T12:04:08;100186.34;;;11.97;25.88
63339;BME280;47485;51.378;-1.342;2023-05-11T12:06:40;100184.01;;;12.14;26.21
63339;BME280;47485;51.378;-1.342;2023-05-11T12:09:07;100180.62;;;12.70;25.68
63339;BME280;47485;51.378;-1.342;2023-05-11T12:11:34;100175.79;;;12.54;24.39
63339;BME280;47485;51.378;-1.342;2023-05-11T12:14:01;100173.92;;;13.30;24.56
63339;BME280;47485;51.378;-1.342;2023-05-11T12:16:28;100172.32;;;10.77;25.15
63339;BME280;47485;51.378;-1.342;2023-05-11T12:18:57;100165.69;;;14.40;22.97
63339;BME280;47485;51.378;-1.342;2023-05-11T12:21:26;100161.34;;;12.97;23.25
63339;BME280;47485;51.378;-1.342;2023-05-11T12:23:54;100160.90;;;13.80;23.08
63339;BME280;47485;51.378;-1.342;2023-05-11T12:26:24;100158.04;;;14.66;21.59
63339;BME280;47485;51.378;-1.342;2023-05-11T12:29:04;100151.96;;;14.40;21.50
63339;BME280;47485;51.378;-1.342;2023-05-11T12:31:34;100147.68;;;18.07;19.03
63339;BME280;47485;51.378;-1.342;2023-05-11T12:34:01;100150.19;;;18.92;17.81
63339;BME280;47485;51.378;-1.342;2023-05-11T12:36:28;100152.99;;;16.33;17.98
63339;BME280;47485;51.378;-1.342;2023-05-11T12:38:55;100158.49;;;14.83;20.36
63339;BME280;47485;51.378;-1.342;2023-05-11T12:41:23;100159.29;;;14.58;19.70
63339;BME280;47485;51.378;-1.342;2023-05-11T12:43:50;100158.12;;;16.30;19.38
63339;BME280;47485;51.378;-1.342;2023-05-11T12:46:18;100156.97;;;17.76;19.13
63339;BME280;47485;51.378;-1.342;2023-05-11T12:48:46;100161.93;;;14.58;19.58
63339;BME280;47485;51.378;-1.342;2023-05-11T12:51:43;100161.49;;;14.19;19.87
63339;BME280;47485;51.378;-1.342;2023-05-11T12:54:10;100153.85;;;15.47;18.25